This is the latest recevied weather packets stored in our database for station/object XE2B-20. If no packets are shown the sender has not sent any weather packets the latest 10 day(s).
| Time | Temp. | Humidity | Pressure | Rain* | Wind** | Luminosity | Snow |
|---|---|---|---|---|---|---|---|
| 1788389131 | 23.89° C | 58% | 807.8 hPa | - | - | - | - |
| 1788387633 | 23.89° C | 59% | 807.6 hPa | - | - | - | - |
| 1788386136 | 25° C | 57% | 807.7 hPa | - | - | - | - |
| 1788384638 | 25° C | 59% | 807.9 hPa | - | - | - | - |
| 1788383140 | 27.78° C | 56% | 808.4 hPa | - | - | - | - |
| 1788381643 | 29.44° C | 54% | 808.5 hPa | - | - | - | - |
| 1788380145 | 29.44° C | 56% | 808.7 hPa | - | - | - | - |
| 1788378648 | 30.56° C | 54% | 809.1 hPa | - | - | - | - |
| 1788377149 | 31.11° C | 54% | 809.6 hPa | - | - | - | - |
| 1788375651 | 31.67° C | 52% | 809.9 hPa | - | - | - | - |
| 1788374153 | 28.33° C | 57% | 810.2 hPa | - | - | - | - |
| 1788372654 | 29.44° C | 55% | 810.5 hPa | - | - | - | - |
| 1788371157 | 30.56° C | 55% | 810.6 hPa | - | - | - | - |
| 1788369659 | 31.67° C | 51% | 810.8 hPa | - | - | - | - |
| 1788368167 | 30° C | 53% | 810.8 hPa | - | - | - | - |
| 1788366667 | 28.89° C | 54% | 811 hPa | - | - | - | - |
| 1788365162 | 27.78° C | 54% | 811.1 hPa | - | - | - | - |
| 1788363663 | 24.44° C | 58% | 811.1 hPa | - | - | - | - |
| 1788362170 | 22.78° C | 62% | 811.1 hPa | - | - | - | - |
| 1788360660 | 23.89° C | 56% | 810.9 hPa | - | - | - | - |
| 1788359161 | 22.78° C | 56% | 811 hPa | - | - | - | - |
| 1788357669 | 18.89° C | 62% | 811 hPa | - | - | - | - |
| 1788356163 | 16.11° C | 66% | 811 hPa | - | - | - | - |
| 1788354663 | 14.44° C | 69% | 810.9 hPa | - | - | - | - |
| 1788353163 | 13.33° C | 70% | 811 hPa | - | - | - | - |
* Rain since midnight (hover to see other rain measurements)
** Current wind speed in m/s (hover to see current wind gust speed)